Terminal Aerodrome Forecast
Issued by NWS St Louis, MO

Home | Current Version | Previous Version | Text Only | Print | Product List | Glossary On
Versions: 1 2 3 4 5 6 7 8 9 10 11 12 13 14 15
000
FTUS43 KLSX 232339
TAFCOU
TAF
KCOU 232339Z 2400/2424 17015G21KT P6SM SKC
     FM240300 17014KT P6SM SKC WS016/21045KT
     FM241400 18017G26KT P6SM SCT250
     FM241900 18015G21KT P6SM OVC080
     FM242200 17012G18KT 3SM TSRA OVC030CB=

USA.gov is the U.S. government's official web portal to all federal, state and local government web resources and services.